createdAt,value
2023-03-29T00:00:45.925Z,96170.00
2023-03-29T00:01:51.820Z,96163.81
2023-03-29T00:02:56.369Z,96179.31
2023-03-29T00:04:02.404Z,96168.44
2023-03-29T00:05:06.579Z,96172.31
2023-03-29T00:06:10.256Z,96174.28
2023-03-29T00:07:14.100Z,96162.63
2023-03-29T00:08:17.363Z,96176.59
2023-03-29T00:09:19.889Z,96179.31
2023-03-29T00:10:24.197Z,96178.53
2023-03-29T00:11:26.293Z,96173.09
2023-03-29T00:12:29.391Z,96171.56
2023-03-29T00:13:31.368Z,96172.31
2023-03-29T00:14:34.228Z,96166.53
2023-03-29T00:15:36.230Z,96170.78
2023-03-29T00:16:39.747Z,96166.94
2023-03-29T00:17:42.991Z,96163.03
2023-03-29T00:18:46.248Z,96165.38
2023-03-29T00:19:48.527Z,96166.16
2023-03-29T00:20:55.955Z,96169.28
2023-03-29T00:21:57.766Z,96170.81
2023-03-29T00:23:00.635Z,96177.81
2023-03-29T00:24:02.696Z,96173.94
2023-03-29T00:25:07.258Z,96173.16
2023-03-29T00:26:09.317Z,96181.69
2023-03-29T00:27:12.204Z,96171.22
2023-03-29T00:28:14.802Z,96177.00
2023-03-29T00:29:17.730Z,96184.38
2023-03-29T00:30:19.568Z,96195.63
2023-03-29T00:31:22.373Z,96189.78
2023-03-29T00:32:25.961Z,96191.72
2023-03-29T00:33:30.384Z,96190.56
2023-03-29T00:34:32.265Z,96199.84
2023-03-29T00:35:35.174Z,96194.81
2023-03-29T00:36:37.035Z,96186.69
2023-03-29T00:37:41.253Z,96187.44
2023-03-29T00:38:44.179Z,96197.94
2023-03-29T00:39:48.271Z,96183.97
2023-03-29T00:40:50.191Z,96185.13
2023-03-29T00:41:53.674Z,96188.25
2023-03-29T00:42:58.096Z,96181.28
2023-03-29T00:44:02.470Z,96184.00
2023-03-29T00:45:10.281Z,96180.88
2023-03-29T00:46:13.446Z,96182.44
2023-03-29T00:47:16.236Z,96176.25
2023-03-29T00:48:22.880Z,96172.72
2023-03-29T00:49:26.404Z,96182.44
2023-03-29T00:50:31.828Z,96179.72
2023-03-29T00:51:37.312Z,96177.78
2023-03-29T00:52:46.278Z,96173.13
2023-03-29T00:53:53.100Z,96178.56
2023-03-29T00:54:59.488Z,96170.41
2023-03-29T00:56:06.382Z,96173.91
2023-03-29T00:57:09.556Z,96173.13
2023-03-29T00:58:16.632Z,96173.91
2023-03-29T00:59:22.895Z,96170.81
2023-03-29T01:00:32.228Z,96168.88
2023-03-29T01:01:42.007Z,96161.88
2023-03-29T01:02:50.925Z,96163.84
2023-03-29T01:03:59.184Z,96148.28
2023-03-29T01:05:08.435Z,96148.28
2023-03-29T01:06:12.158Z,96151.00
2023-03-29T01:07:21.284Z,96149.84
2023-03-29T01:08:27.531Z,96148.28
2023-03-29T01:09:34.390Z,96138.22
2023-03-29T01:10:40.499Z,96139.00
2023-03-29T01:11:48.648Z,96136.69
2023-03-29T01:12:56.451Z,96132.78
2023-03-29T01:14:03.731Z,96134.34
2023-03-29T01:15:10.157Z,96133.56
2023-03-29T01:16:15.548Z,96135.09
2023-03-29T01:17:21.745Z,96125.41
2023-03-29T01:18:24.621Z,96124.25
2023-03-29T01:19:33.901Z,96126.19
2023-03-29T01:20:56.436Z,96117.28
2023-03-29T01:22:05.508Z,96111.84
2023-03-29T01:23:31.642Z,96109.53
2023-03-29T01:24:46.266Z,96111.06
2023-03-29T01:25:55.639Z,96111.06
2023-03-29T01:27:05.253Z,96111.44
2023-03-29T01:28:11.625Z,96108.72
2023-03-29T01:29:18.469Z,96110.66
2023-03-29T01:30:26.922Z,96111.44
2023-03-29T01:31:34.816Z,96107.94
2023-03-29T01:32:44.655Z,96097.84
2023-03-29T01:33:53.129Z,96100.56
2023-03-29T01:35:00.571Z,96084.28
2023-03-29T01:36:09.641Z,96085.44
2023-03-29T01:37:19.197Z,96085.44
2023-03-29T01:38:25.473Z,96076.13
2023-03-29T01:39:28.550Z,96068.34
2023-03-29T01:40:33.482Z,96073.78
2023-03-29T01:41:47.812Z,96060.63
2023-03-29T01:42:57.980Z,96064.09
2023-03-29T01:44:06.678Z,96064.88
2023-03-29T01:45:22.692Z,96056.72
2023-03-29T01:46:31.823Z,96062.16
2023-03-29T01:47:44.309Z,96051.28
2023-03-29T01:48:51.470Z,96055.97
2023-03-29T01:50:00.610Z,96063.25
2023-03-29T01:51:08.577Z,96060.56
2023-03-29T01:52:17.083Z,96050.50
2023-03-29T01:53:28.233Z,96050.06
2023-03-29T01:54:35.350Z,96040.81
2023-03-29T01:55:42.481Z,96040.75
2023-03-29T01:56:48.381Z,96040.34
2023-03-29T01:57:54.116Z,96037.63
2023-03-29T01:59:00.942Z,96034.94
2023-03-29T02:00:10.786Z,96040.34
2023-03-29T02:01:17.665Z,96036.88
2023-03-29T02:02:22.589Z,96034.16
2023-03-29T02:03:28.107Z,96034.16
2023-03-29T02:04:35.148Z,96027.16
2023-03-29T02:05:39.308Z,96028.72
2023-03-29T02:06:43.391Z,96028.72
2023-03-29T02:07:47.506Z,96033.34
2023-03-29T02:08:52.326Z,96045.38
2023-03-29T02:09:55.304Z,96046.16
2023-03-29T02:10:59.219Z,96042.69
2023-03-29T02:12:02.318Z,96039.19
2023-03-29T02:13:08.823Z,96037.25
2023-03-29T02:14:10.751Z,96034.53
2023-03-29T02:15:18.660Z,96032.59
2023-03-29T02:16:20.896Z,96025.63
2023-03-29T02:17:25.976Z,96016.28
2023-03-29T02:18:28.484Z,96015.53
2023-03-29T02:19:31.393Z,96014.75
2023-03-29T02:20:39.311Z,96020.97
2023-03-29T02:21:49.161Z,96018.25
2023-03-29T02:22:57.937Z,96015.91
2023-03-29T02:24:04.376Z,96013.97
2023-03-29T02:25:09.428Z,96008.53
2023-03-29T02:26:14.631Z,96001.56
2023-03-29T02:27:16.684Z,96003.91
2023-03-29T02:28:19.615Z,96007.00
2023-03-29T02:29:21.503Z,96002.72
2023-03-29T02:30:31.386Z,95998.44
2023-03-29T02:31:39.087Z,95998.44
2023-03-29T02:32:50.657Z,96001.16
2023-03-29T02:33:57.360Z,96006.97
2023-03-29T02:35:06.656Z,96002.34
2023-03-29T02:36:13.099Z,95996.91
2023-03-29T02:37:21.726Z,95996.91
2023-03-29T02:38:25.609Z,95999.63
2023-03-29T02:39:31.664Z,95993.78
2023-03-29T02:40:34.864Z,95999.22
2023-03-29T02:41:39.641Z,96000.78
2023-03-29T02:42:45.904Z,95994.59
2023-03-29T02:43:49.532Z,95986.44
2023-03-29T02:44:56.330Z,95989.16
2023-03-29T02:46:01.197Z,95994.59
2023-03-29T02:47:08.173Z,95982.16
2023-03-29T02:48:16.243Z,95984.09
2023-03-29T02:49:18.784Z,95986.06
2023-03-29T02:50:21.988Z,95973.63
2023-03-29T02:51:27.633Z,95976.75
2023-03-29T02:52:36.494Z,95978.69
2023-03-29T02:53:43.562Z,95977.50
2023-03-29T02:54:50.324Z,95979.06
2023-03-29T02:55:52.830Z,95974.78
2023-03-29T02:56:58.312Z,95972.88
2023-03-29T02:58:03.353Z,95978.31
2023-03-29T02:59:06.275Z,95971.31
2023-03-29T03:00:10.167Z,95972.88
2023-03-29T03:01:15.036Z,95985.28
2023-03-29T03:02:17.598Z,95978.31
2023-03-29T03:03:20.807Z,95979.84
2023-03-29T03:04:25.510Z,95978.66
2023-03-29T03:05:28.393Z,95971.69
2023-03-29T03:06:30.272Z,95975.19
2023-03-29T03:07:33.713Z,95971.69
2023-03-29T03:08:35.669Z,95980.63
2023-03-29T03:09:38.540Z,95981.38
2023-03-29T03:10:41.368Z,95974.81
2023-03-29T03:11:43.394Z,95970.53
2023-03-29T03:12:46.600Z,95964.34
2023-03-29T03:13:48.676Z,95954.22
2023-03-29T03:14:51.567Z,95962.75
2023-03-29T03:15:54.179Z,95970.91
2023-03-29T03:16:58.489Z,95968.19
2023-03-29T03:18:00.791Z,95977.91
2023-03-29T03:19:04.486Z,95964.69
2023-03-29T03:20:12.595Z,95958.13
2023-03-29T03:21:16.660Z,95952.69
2023-03-29T03:22:19.272Z,95955.03
2023-03-29T03:23:22.909Z,95954.22
2023-03-29T03:24:25.265Z,95947.25
2023-03-29T03:25:29.058Z,95947.25
2023-03-29T03:26:31.308Z,95930.59
2023-03-29T03:27:34.928Z,95940.66
2023-03-29T03:28:36.776Z,95937.94
2023-03-29T03:29:42.407Z,95939.50
2023-03-29T03:30:47.327Z,95928.66
2023-03-29T03:31:54.062Z,95929.44
2023-03-29T03:33:30.476Z,95932.91
2023-03-29T03:35:08.828Z,95937.19
2023-03-29T03:36:11.408Z,95939.91
2023-03-29T03:37:15.448Z,95929.06
2023-03-29T03:38:18.430Z,95932.53
2023-03-29T03:39:27.780Z,95932.53
2023-03-29T03:40:30.949Z,95927.88
2023-03-29T03:41:33.079Z,95927.88
2023-03-29T03:42:36.161Z,95920.91
2023-03-29T03:43:38.206Z,95910.06
2023-03-29T03:44:42.542Z,95913.91
2023-03-29T03:46:18.116Z,95907.31
2023-03-29T03:47:20.881Z,95910.81
2023-03-29T03:48:24.992Z,95910.03
2023-03-29T03:49:58.419Z,95915.47
2023-03-29T03:51:01.400Z,95909.25
2023-03-29T03:52:10.462Z,95910.81
2023-03-29T03:53:12.329Z,95903.84
2023-03-29T03:54:41.253Z,95907.69
2023-03-29T03:56:16.794Z,95902.25
2023-03-29T03:57:38.886Z,95893.34
2023-03-29T03:58:47.547Z,95889.09
2023-03-29T03:59:52.276Z,95888.34
2023-03-29T04:01:03.579Z,95888.34
2023-03-29T04:02:16.482Z,95889.09
2023-03-29T04:03:19.694Z,95897.63
2023-03-29T04:04:24.670Z,95896.47
2023-03-29T04:05:41.851Z,95892.97
2023-03-29T04:06:45.078Z,95892.19
2023-03-29T04:08:15.541Z,95889.47
2023-03-29T04:09:36.284Z,95878.63
2023-03-29T04:11:09.188Z,95882.09
2023-03-29T04:12:13.195Z,95886.00
2023-03-29T04:13:17.732Z,95883.69
2023-03-29T04:14:40.540Z,95882.13
2023-03-29T04:15:49.731Z,95882.13
2023-03-29T04:16:52.759Z,95891.41
2023-03-29T04:18:25.192Z,95887.53
2023-03-29T04:19:31.389Z,95888.31
2023-03-29T04:20:34.629Z,95877.47
2023-03-29T04:21:38.571Z,95886.00
2023-03-29T04:22:42.059Z,95884.06
2023-03-29T04:23:46.509Z,95877.47
2023-03-29T04:24:49.452Z,95877.47
2023-03-29T04:26:09.971Z,95877.84
2023-03-29T04:27:27.927Z,95880.56
2023-03-29T04:28:31.593Z,95875.53
2023-03-29T04:29:44.756Z,95875.16
2023-03-29T04:30:57.215Z,95870.47
2023-03-29T04:32:21.232Z,95882.09
2023-03-29T04:33:37.535Z,95877.47
2023-03-29T04:34:40.588Z,95868.16
2023-03-29T04:35:42.591Z,95873.59
2023-03-29T04:36:51.217Z,95873.59
2023-03-29T04:37:57.982Z,95865.06
2023-03-29T04:39:01.867Z,95875.16
2023-03-29T04:40:09.005Z,95871.28
2023-03-29T04:41:24.932Z,95870.53
2023-03-29T04:42:34.245Z,95872.09
2023-03-29T04:43:39.713Z,95863.16
2023-03-29T04:45:00.955Z,95861.97
2023-03-29T04:46:25.474Z,95860.44
2023-03-29T04:47:49.004Z,95861.59
2023-03-29T04:48:54.109Z,95860.44
2023-03-29T04:50:08.031Z,95859.66
2023-03-29T04:51:14.512Z,95859.66
2023-03-29T04:52:19.316Z,95850.38
2023-03-29T04:53:22.931Z,95858.09
2023-03-29T04:54:26.420Z,95855.38
2023-03-29T04:55:47.904Z,95857.34
2023-03-29T04:56:57.148Z,95851.91
2023-03-29T04:58:38.297Z,95859.66
2023-03-29T04:59:40.169Z,95856.94
2023-03-29T05:00:58.919Z,95864.31
2023-03-29T05:02:05.717Z,95865.09
2023-03-29T05:03:11.440Z,95871.28
2023-03-29T05:04:19.280Z,95877.09
2023-03-29T05:05:36.989Z,95871.28
2023-03-29T05:06:40.047Z,95868.19
2023-03-29T05:07:45.210Z,95869.34
2023-03-29T05:08:50.006Z,95866.63
2023-03-29T05:09:56.866Z,95861.19
2023-03-29T05:10:59.985Z,95872.06
2023-03-29T05:12:03.676Z,95873.63
2023-03-29T05:13:14.623Z,95863.53
2023-03-29T05:14:16.486Z,95867.41
2023-03-29T05:15:20.606Z,95870.91
2023-03-29T05:16:26.342Z,95876.75
2023-03-29T05:17:31.796Z,95865.88
2023-03-29T05:18:41.820Z,95853.81
2023-03-29T05:19:45.107Z,95857.72
2023-03-29T05:20:47.979Z,95854.59
2023-03-29T05:21:53.149Z,95858.88
2023-03-29T05:23:00.474Z,95857.69
2023-03-29T05:24:22.398Z,95860.81
2023-03-29T05:25:33.553Z,95855.75
2023-03-29T05:26:35.585Z,95859.28
2023-03-29T05:27:39.935Z,95857.31
2023-03-29T05:28:44.391Z,95856.16
2023-03-29T05:29:48.968Z,95864.28
2023-03-29T05:31:01.393Z,95855.75
2023-03-29T05:32:05.209Z,95859.25
2023-03-29T05:33:10.651Z,95863.53
2023-03-29T05:34:13.800Z,95854.22
2023-03-29T05:35:24.164Z,95861.19
2023-03-29T05:36:26.363Z,95858.47
2023-03-29T05:37:29.637Z,95868.19
2023-03-29T05:38:38.173Z,95869.75
2023-03-29T05:39:40.175Z,95865.06
2023-03-29T05:40:43.196Z,95865.06
2023-03-29T05:42:22.548Z,95868.94
2023-03-29T05:43:30.917Z,95864.28
2023-03-29T05:44:33.232Z,95864.66
2023-03-29T05:45:46.038Z,95863.91
2023-03-29T05:46:48.483Z,95863.53
2023-03-29T05:47:53.119Z,95858.09
2023-03-29T05:48:55.181Z,95866.63
2023-03-29T05:50:03.841Z,95860.00
2023-03-29T05:51:06.317Z,95869.69
2023-03-29T05:52:09.326Z,95871.25
2023-03-29T05:53:12.852Z,95877.47
2023-03-29T05:54:17.169Z,95869.31
2023-03-29T05:55:19.126Z,95875.53
2023-03-29T05:56:22.440Z,95868.16
2023-03-29T05:57:24.364Z,95870.09
2023-03-29T05:58:28.458Z,95863.50
2023-03-29T05:59:30.475Z,95868.53
2023-03-29T06:00:36.881Z,95869.31
2023-03-29T06:01:54.514Z,95868.16
2023-03-29T06:03:06.450Z,95870.88
2023-03-29T06:04:13.437Z,95875.16
2023-03-29T06:05:25.027Z,95879.00
2023-03-29T06:06:32.253Z,95875.16
2023-03-29T06:07:38.209Z,95870.88
2023-03-29T06:09:04.118Z,95881.72
2023-03-29T06:10:24.907Z,95875.16
2023-03-29T06:11:35.081Z,95873.59
2023-03-29T06:13:00.141Z,95876.69
2023-03-29T06:14:03.720Z,95875.91
2023-03-29T06:15:08.513Z,95880.59
2023-03-29T06:16:16.540Z,95876.69
2023-03-29T06:17:19.821Z,95882.13
2023-03-29T06:18:24.637Z,95883.66
2023-03-29T06:19:26.473Z,95879.00
2023-03-29T06:20:30.692Z,95888.31
2023-03-29T06:21:39.313Z,95887.16
2023-03-29T06:22:42.518Z,95890.66
2023-03-29T06:23:47.705Z,95896.09
2023-03-29T06:24:52.119Z,95886.75
2023-03-29T06:26:02.479Z,95893.75
2023-03-29T06:27:04.736Z,95893.00
2023-03-29T06:28:07.798Z,95903.88
2023-03-29T06:29:11.380Z,95893.75
2023-03-29T06:30:17.178Z,95895.31
2023-03-29T06:31:24.585Z,95893.34
2023-03-29T06:32:28.273Z,95895.31
2023-03-29T06:33:43.138Z,95895.31
2023-03-29T06:35:08.187Z,95902.31
2023-03-29T06:36:16.881Z,95895.69
2023-03-29T06:37:19.404Z,95891.81
2023-03-29T06:38:26.337Z,95892.97
2023-03-29T06:39:53.837Z,95898.03
2023-03-29T06:41:04.905Z,95896.06
2023-03-29T06:42:25.466Z,95898.41
2023-03-29T06:43:57.798Z,95904.22
2023-03-29T06:45:07.695Z,95892.56
2023-03-29T06:46:13.460Z,95896.84
2023-03-29T06:47:45.475Z,95898.38
2023-03-29T06:48:48.314Z,95887.53
2023-03-29T06:49:51.308Z,95896.84
2023-03-29T06:51:12.848Z,95891.41
2023-03-29T06:52:15.832Z,95892.19
2023-03-29T06:53:22.073Z,95893.72
2023-03-29T06:54:33.634Z,95890.63
2023-03-29T06:55:37.844Z,95893.31
2023-03-29T06:57:08.003Z,95884.00
2023-03-29T06:58:11.077Z,95895.28
2023-03-29T06:59:14.708Z,95890.59
2023-03-29T07:00:35.770Z,95896.44
2023-03-29T07:01:52.592Z,95890.59
2023-03-29T07:03:08.034Z,95887.88
2023-03-29T07:04:11.121Z,95895.25
2023-03-29T07:05:32.424Z,95888.63
2023-03-29T07:06:36.686Z,95892.91
2023-03-29T07:07:53.685Z,95889.78
2023-03-29T07:09:18.357Z,95895.22
2023-03-29T07:10:44.077Z,95892.91
2023-03-29T07:12:05.435Z,95895.63
2023-03-29T07:13:11.047Z,95897.91
2023-03-29T07:14:13.966Z,95894.44
2023-03-29T07:15:16.239Z,95889.00
2023-03-29T07:16:39.152Z,95896.00
2023-03-29T07:17:55.134Z,95896.00
2023-03-29T07:18:58.100Z,95890.56
2023-03-29T07:20:33.741Z,95904.16
2023-03-29T07:21:43.626Z,95898.34
2023-03-29T07:22:48.215Z,95896.38
2023-03-29T07:23:52.214Z,95898.31
2023-03-29T07:24:54.328Z,95901.41
2023-03-29T07:25:57.312Z,95890.53
2023-03-29T07:27:04.544Z,95903.34
2023-03-29T07:28:11.215Z,95895.16
2023-03-29T07:29:14.637Z,95902.94
2023-03-29T07:30:19.233Z,95902.94
2023-03-29T07:31:22.236Z,95906.06
2023-03-29T07:32:31.241Z,95904.88
2023-03-29T07:33:55.844Z,95895.13
2023-03-29T07:34:59.125Z,95905.25
2023-03-29T07:36:09.238Z,95915.34
2023-03-29T07:37:11.335Z,95909.88
2023-03-29T07:38:17.145Z,95907.56
2023-03-29T07:39:26.158Z,95914.53
2023-03-29T07:40:51.752Z,95919.22
2023-03-29T07:42:12.210Z,95909.09
2023-03-29T07:43:18.290Z,95905.22
2023-03-29T07:44:21.616Z,95906.00
2023-03-29T07:45:28.166Z,95907.53
2023-03-29T07:46:44.940Z,95906.75
2023-03-29T07:47:47.504Z,95913.34
2023-03-29T07:48:50.475Z,95915.69
2023-03-29T07:49:52.377Z,95909.47
2023-03-29T07:50:55.885Z,95916.47
2023-03-29T07:52:03.788Z,95911.41
2023-03-29T07:53:07.306Z,95923.06
2023-03-29T07:54:10.961Z,95916.84
2023-03-29T07:55:16.423Z,95912.97
2023-03-29T07:56:36.408Z,95914.50
2023-03-29T07:57:53.813Z,95919.16
2023-03-29T07:58:58.313Z,95914.50
2023-03-29T08:00:00.500Z,95917.59
2023-03-29T08:01:19.699Z,95915.66
2023-03-29T08:02:43.960Z,95920.72
2023-03-29T08:03:46.911Z,95918.38
2023-03-29T08:04:49.923Z,95917.59
2023-03-29T08:05:51.961Z,95921.47
2023-03-29T08:06:55.260Z,95923.03
2023-03-29T08:08:02.713Z,95929.25
2023-03-29T08:09:13.652Z,95925.75
2023-03-29T08:10:21.471Z,95924.63
2023-03-29T08:11:38.549Z,95925.38
2023-03-29T08:12:50.198Z,95926.91
2023-03-29T08:13:56.261Z,95926.16
2023-03-29T08:15:28.793Z,95930.06
2023-03-29T08:16:31.780Z,95926.16
2023-03-29T08:17:40.833Z,95920.31
2023-03-29T08:18:43.799Z,95928.50
2023-03-29T08:19:50.992Z,95916.06
2023-03-29T08:20:58.136Z,95927.72
2023-03-29T08:22:00.986Z,95919.94
2023-03-29T08:23:11.383Z,95921.50
2023-03-29T08:24:33.045Z,95922.81
2023-03-29T08:25:41.401Z,95924.84
2023-03-29T08:26:44.965Z,95924.72
2023-03-29T08:27:50.001Z,95932.50
2023-03-29T08:29:02.812Z,95926.69
2023-03-29T08:30:08.225Z,95920.94
2023-03-29T08:31:13.774Z,95931.50
2023-03-29T08:32:20.393Z,95933.53
2023-03-29T08:33:22.442Z,95932.03
2023-03-29T08:34:35.556Z,95932.09
2023-03-29T08:35:58.707Z,95929.81
2023-03-29T08:37:05.071Z,95924.78
2023-03-29T08:38:14.637Z,95928.72
2023-03-29T08:39:18.495Z,95928.31
2023-03-29T08:40:31.712Z,95922.88
2023-03-29T08:41:56.478Z,95923.66
2023-03-29T08:43:29.957Z,95922.13
2023-03-29T08:45:07.852Z,95917.81
2023-03-29T08:46:23.747Z,95920.53
2023-03-29T08:47:35.229Z,95917.78
2023-03-29T08:48:42.383Z,95917.34
2023-03-29T08:49:49.673Z,95908.75
2023-03-29T08:50:57.285Z,95909.06
2023-03-29T08:52:03.680Z,95915.31
2023-03-29T08:53:12.907Z,95911.41
2023-03-29T08:54:56.698Z,95913.31
2023-03-29T08:56:31.536Z,95909.44
2023-03-29T08:57:47.431Z,95917.63
2023-03-29T08:58:58.949Z,95909.50
2023-03-29T09:00:10.555Z,95915.72
2023-03-29T09:01:16.256Z,95902.84
2023-03-29T09:02:38.129Z,95913.38
2023-03-29T09:03:48.388Z,95912.19
2023-03-29T09:05:09.532Z,95916.03
2023-03-29T09:06:23.063Z,95914.50
2023-03-29T09:07:30.787Z,95910.59
2023-03-29T09:08:37.308Z,95914.13
2023-03-29T09:09:39.301Z,95914.13
2023-03-29T09:11:12.540Z,95905.94
2023-03-29T09:12:28.193Z,95920.34
2023-03-29T09:13:40.644Z,95917.19
2023-03-29T09:14:56.762Z,95914.84
2023-03-29T09:16:08.436Z,95909.03
2023-03-29T09:17:28.573Z,95914.47
2023-03-29T09:18:40.338Z,95916.03
2023-03-29T09:19:49.133Z,95918.75
2023-03-29T09:20:58.087Z,95917.56
2023-03-29T09:22:10.412Z,95919.13
2023-03-29T09:23:29.455Z,95914.84
2023-03-29T09:24:59.924Z,95914.84
2023-03-29T09:26:09.730Z,95920.28
2023-03-29T09:27:35.413Z,95916.03
2023-03-29T09:29:10.299Z,95912.53
2023-03-29T09:30:21.379Z,95917.19
2023-03-29T09:31:33.607Z,95918.75
2023-03-29T09:32:45.246Z,95913.31
2023-03-29T09:33:54.338Z,95916.41
2023-03-29T09:35:10.530Z,95914.06
2023-03-29T09:36:18.326Z,95914.44
2023-03-29T09:37:30.183Z,95918.69
2023-03-29T09:38:43.370Z,95917.94
2023-03-29T09:39:45.908Z,95914.06
2023-03-29T09:40:56.652Z,95913.25
2023-03-29T09:42:04.804Z,95906.28
2023-03-29T09:43:11.303Z,95922.56
2023-03-29T09:44:30.376Z,95917.94
2023-03-29T09:45:40.246Z,95915.16
2023-03-29T09:46:47.458Z,95910.06
2023-03-29T09:47:56.972Z,95916.28
2023-03-29T09:49:03.057Z,95920.16
2023-03-29T09:50:19.829Z,95917.81
2023-03-29T09:51:35.651Z,95912.75
2023-03-29T09:52:38.702Z,95909.97
2023-03-29T09:53:52.247Z,95903.75
2023-03-29T09:55:16.078Z,95900.63
2023-03-29T09:56:32.750Z,95901.41
2023-03-29T09:57:46.629Z,95902.16
2023-03-29T09:58:51.284Z,95900.25
2023-03-29T09:59:55.981Z,95891.28
2023-03-29T10:01:00.688Z,95895.94
2023-03-29T10:02:08.609Z,95892.03
2023-03-29T10:03:19.788Z,95895.88
2023-03-29T10:04:27.943Z,95896.66
2023-03-29T10:05:37.847Z,95900.19
2023-03-29T10:06:47.483Z,95892.78
2023-03-29T10:07:53.759Z,95897.41
2023-03-29T10:08:58.968Z,95893.16
2023-03-29T10:10:10.477Z,95888.88
2023-03-29T10:11:22.113Z,95886.91
2023-03-29T10:12:24.044Z,95883.38
2023-03-29T10:13:30.618Z,95884.16
2023-03-29T10:14:35.421Z,95886.47
2023-03-29T10:15:38.333Z,95890.75
2023-03-29T10:16:45.270Z,95884.94
2023-03-29T10:17:47.711Z,95890.38
2023-03-29T10:18:54.596Z,95895.44
2023-03-29T10:20:00.934Z,95886.47
2023-03-29T10:21:07.362Z,95888.41
2023-03-29T10:22:18.924Z,95889.63
2023-03-29T10:23:21.708Z,95882.59
2023-03-29T10:24:26.527Z,95889.63
2023-03-29T10:25:31.525Z,95885.69
2023-03-29T10:26:36.894Z,95877.13
2023-03-29T10:27:43.515Z,95871.66
2023-03-29T10:28:46.456Z,95870.91
2023-03-29T10:29:48.487Z,95875.94
2023-03-29T10:30:56.327Z,95869.31
2023-03-29T10:31:59.213Z,95879.78
2023-03-29T10:33:01.648Z,95870.84
2023-03-29T10:34:08.973Z,95879.41
2023-03-29T10:35:24.929Z,95865.75
2023-03-29T10:36:28.543Z,95883.25
2023-03-29T10:37:31.586Z,95870.75
2023-03-29T10:38:36.522Z,95876.16
2023-03-29T10:39:40.701Z,95873.03
2023-03-29T10:40:45.381Z,95876.91
2023-03-29T10:41:53.184Z,95872.19
2023-03-29T10:42:58.712Z,95865.16
2023-03-29T10:44:02.431Z,95868.63
2023-03-29T10:45:05.103Z,95855.38
2023-03-29T10:46:10.948Z,95861.19
2023-03-29T10:47:16.332Z,95864.28
2023-03-29T10:48:19.772Z,95860.38
2023-03-29T10:49:25.461Z,95860.75
2023-03-29T10:50:33.405Z,95865.03
2023-03-29T10:51:36.591Z,95861.88
2023-03-29T10:52:40.267Z,95853.28
2023-03-29T10:53:43.255Z,95854.81
2023-03-29T10:54:47.356Z,95850.94
2023-03-29T10:56:01.773Z,95851.72
2023-03-29T10:57:09.308Z,95855.56
2023-03-29T10:58:30.362Z,95861.78
2023-03-29T10:59:40.782Z,95860.22
2023-03-29T11:00:50.976Z,95846.94
2023-03-29T11:02:26.003Z,95841.47
2023-03-29T11:03:53.814Z,95838.41
2023-03-29T11:05:10.526Z,95841.47
2023-03-29T11:06:20.951Z,95844.56
2023-03-29T11:07:29.913Z,95841.84
2023-03-29T11:08:48.102Z,95845.31
2023-03-29T11:10:00.933Z,95840.97
2023-03-29T11:11:16.476Z,95844.84
2023-03-29T11:12:26.858Z,95845.63
2023-03-29T11:13:38.885Z,95852.59
2023-03-29T11:14:52.346Z,95848.28
2023-03-29T11:16:09.639Z,95854.47
2023-03-29T11:17:28.361Z,95845.91
2023-03-29T11:18:49.780Z,95856.81
2023-03-29T11:20:04.514Z,95850.53
2023-03-29T11:21:19.736Z,95843.47
2023-03-29T11:22:31.226Z,95846.94
2023-03-29T11:23:46.029Z,95841.47
2023-03-29T11:25:08.066Z,95845.03
2023-03-29T11:26:18.152Z,95848.53
2023-03-29T11:27:29.819Z,95852.03
2023-03-29T11:28:42.203Z,95853.63
2023-03-29T11:29:54.478Z,95858.25
2023-03-29T11:31:05.582Z,95846.59
2023-03-29T11:32:15.883Z,95847.72
2023-03-29T11:33:33.958Z,95846.59
2023-03-29T11:34:52.478Z,95850.44
2023-03-29T11:36:06.326Z,95852.31
2023-03-29T11:37:20.368Z,95851.94
2023-03-29T11:38:32.331Z,95862.03
2023-03-29T11:39:45.967Z,95866.69
2023-03-29T11:40:57.685Z,95873.69
2023-03-29T11:42:09.276Z,95869.41
2023-03-29T11:43:18.968Z,95860.50
2023-03-29T11:44:25.403Z,95855.03
2023-03-29T11:45:30.108Z,95857.00
2023-03-29T11:46:37.845Z,95863.53
2023-03-29T11:47:42.931Z,95865.50
2023-03-29T11:48:51.492Z,95853.41
2023-03-29T11:49:57.412Z,95858.44
2023-03-29T11:51:07.080Z,95859.16
2023-03-29T11:52:15.958Z,95854.47
2023-03-29T11:53:25.537Z,95854.06
2023-03-29T11:54:34.470Z,95850.94
2023-03-29T11:55:39.344Z,95850.94
2023-03-29T11:56:45.993Z,95853.22
2023-03-29T11:57:53.778Z,95847.38
2023-03-29T11:59:02.979Z,95851.22
2023-03-29T12:00:12.407Z,95846.91
2023-03-29T12:01:19.945Z,95846.50
2023-03-29T12:02:30.803Z,95846.63
2023-03-29T12:03:38.665Z,95846.25
2023-03-29T12:04:47.779Z,95849.72
2023-03-29T12:05:56.783Z,95853.66
2023-03-29T12:07:10.380Z,95856.31
2023-03-29T12:08:16.589Z,95852.81
2023-03-29T12:09:28.983Z,95854.38
2023-03-29T12:10:36.334Z,95854.72
2023-03-29T12:11:43.758Z,95854.72
2023-03-29T12:12:50.365Z,95855.09
2023-03-29T12:13:59.002Z,95844.59
2023-03-29T12:15:06.894Z,95850.00
2023-03-29T12:16:16.610Z,95845.28
2023-03-29T12:17:24.077Z,95839.06
2023-03-29T12:18:31.308Z,95847.25
2023-03-29T12:19:41.806Z,95844.53
2023-03-29T12:20:50.849Z,95844.53
2023-03-29T12:21:56.078Z,95849.16
2023-03-29T12:23:01.690Z,95831.59
2023-03-29T12:24:03.964Z,95837.06
2023-03-29T12:25:11.901Z,95826.91
2023-03-29T12:26:29.403Z,95823.41
2023-03-29T12:27:38.372Z,95828.81
2023-03-29T12:29:05.301Z,95829.47
2023-03-29T12:30:34.447Z,95824.78
2023-03-29T12:31:43.549Z,95827.13
2023-03-29T12:33:00.597Z,95826.69
2023-03-29T12:34:49.140Z,95828.25
2023-03-29T12:36:30.592Z,95826.63
2023-03-29T12:38:17.934Z,95823.91
2023-03-29T12:40:11.808Z,95824.75
2023-03-29T12:41:38.366Z,95816.19
2023-03-29T12:43:07.438Z,95820.53
2023-03-29T12:44:34.072Z,95818.19
2023-03-29T12:45:54.586Z,95820.94
2023-03-29T12:47:00.292Z,95821.69
2023-03-29T12:48:02.859Z,95818.56
2023-03-29T12:49:12.270Z,95816.19
2023-03-29T12:50:28.572Z,95816.53
2023-03-29T12:51:33.553Z,95813.09
2023-03-29T12:52:37.701Z,95816.19
2023-03-29T12:53:44.567Z,95817.25
2023-03-29T12:54:53.438Z,95810.97
2023-03-29T12:56:09.871Z,95816.00
2023-03-29T12:57:22.496Z,95808.91
2023-03-29T12:58:42.736Z,95803.47
2023-03-29T12:59:46.875Z,95805.03
2023-03-29T13:01:05.777Z,95803.78
2023-03-29T13:02:28.230Z,95804.91
2023-03-29T13:03:42.449Z,95797.81
2023-03-29T13:04:52.386Z,95804.84
2023-03-29T13:06:01.347Z,95808.72
2023-03-29T13:07:07.140Z,95812.13
2023-03-29T13:08:26.742Z,95806.22
2023-03-29T13:09:32.327Z,95817.50
2023-03-29T13:10:39.060Z,95809.28
2023-03-29T13:11:41.373Z,95806.47
2023-03-29T13:12:46.519Z,95803.34
2023-03-29T13:13:50.953Z,95804.88
2023-03-29T13:14:56.654Z,95800.63
2023-03-29T13:16:11.995Z,95798.22
2023-03-29T13:17:25.682Z,95781.84
2023-03-29T13:18:50.371Z,95787.31
2023-03-29T13:20:14.282Z,95796.66
2023-03-29T13:21:24.468Z,95788.91
2023-03-29T13:22:42.612Z,95777.97
2023-03-29T13:23:54.412Z,95786.50
2023-03-29T13:25:17.920Z,95777.06
2023-03-29T13:26:37.128Z,95785.63
2023-03-29T13:27:50.759Z,95780.97
2023-03-29T13:29:15.440Z,95773.03
2023-03-29T13:30:28.442Z,95782.72
2023-03-29T13:31:37.221Z,95786.91
2023-03-29T13:32:49.976Z,95788.47
2023-03-29T13:34:02.172Z,95781.09
2023-03-29T13:35:14.786Z,95775.97
2023-03-29T13:36:33.109Z,95772.41